Time;durP1;ratioP1;P1;durP2;ratioP2;P2;SDS_P1;SDS_P2;PMS_P1;PMS_P2;Temp;Humidity;BMP_temperature;BMP_pressure;BME280_temperature;BME280_humidity;BME280_pressure;Samples;Min_cycle;Max_cycle;Signal;HPM_P1;HPM_P2
2022/08/15 00:00:54;;;;;;;;;;;19.80;65.00;;;;;;5080232;28;19928;-65
2022/08/15 00:06:27;;;;;;;;;;;19.80;66.60;;;;;;5083312;28;19922;-65
2022/08/15 00:08:55;;;;;;;;;;;19.70;67.40;;;;;;5058752;28;19955;-66
2022/08/15 00:11:25;;;;;;;;;;;19.70;68.60;;;;;;5077452;28;19919;-66
2022/08/15 00:13:53;;;;;;;;;;;19.60;70.20;;;;;;5072787;28;20364;-66
2022/08/15 00:16:18;;;;;;;;;;;19.60;71.30;;;;;;5076805;28;19917;-65
2022/08/15 00:18:45;;;;;;;;;;;19.50;72.70;;;;;;5072968;28;19916;-65
2022/08/15 00:21:11;;;;;;;;;;;19.50;73.10;;;;;;5073592;28;19921;-66
2022/08/15 00:23:40;;;;;;;;;;;19.40;74.20;;;;;;5077689;28;20374;-67
2022/08/15 00:26:07;;;;;;;;;;;19.20;75.70;;;;;;5083121;28;19912;-64
2022/08/15 00:28:33;;;;;;;;;;;19.10;77.10;;;;;;5083265;28;19930;-67
2022/08/15 00:30:58;;;;;;;;;;;19.10;79.00;;;;;;5086909;28;19921;-66
2022/08/15 00:33:25;;;;;;;;;;;19.10;80.20;;;;;;5080882;28;19922;-67
2022/08/15 00:35:51;;;;;;;;;;;19.00;80.40;;;;;;5094480;28;20006;-66
2022/08/15 00:38:20;;;;;;;;;;;18.90;80.70;;;;;;5094169;28;19951;-65
2022/08/15 00:43:33;;;;;;;;;;;19.00;75.60;;;;;;5080485;28;19962;-65
2022/08/15 00:45:59;;;;;;;;;;;19.00;74.70;;;;;;5070619;28;19912;-66
2022/08/15 00:48:43;;;;;;;;;;;18.90;76.40;;;;;;5102234;28;19916;-66
2022/08/15 00:51:14;;;;;;;;;;;18.90;77.80;;;;;;5097802;28;19913;-65
2022/08/15 00:53:41;;;;;;;;;;;18.90;77.70;;;;;;5090973;28;19959;-67
2022/08/15 00:56:08;;;;;;;;;;;18.80;77.70;;;;;;5081604;28;19915;-66
2022/08/15 00:58:33;;;;;;;;;;;18.80;77.50;;;;;;5079900;28;19919;-67
2022/08/15 01:00:59;;;;;;;;;;;18.80;79.30;;;;;;5087946;28;19916;-66
2022/08/15 01:03:28;;;;;;;;;;;18.70;75.90;;;;;;5099658;28;19930;-66
2022/08/15 01:05:56;;;;;;;;;;;18.60;73.50;;;;;;5091142;28;19912;-66
2022/08/15 01:08:24;;;;;;;;;;;18.60;72.10;;;;;;5091824;28;19947;-65
2022/08/15 01:10:50;;;;;;;;;;;18.60;72.40;;;;;;5097803;28;19912;-68
2022/08/15 01:13:16;;;;;;;;;;;18.60;73.40;;;;;;5091020;28;19998;-66
2022/08/15 01:15:41;;;;;;;;;;;18.60;72.10;;;;;;5096589;28;20355;-66
2022/08/15 01:18:07;;;;;;;;;;;18.60;70.70;;;;;;5082744;28;19913;-65
2022/08/15 01:20:34;;;;;;;;;;;18.60;72.50;;;;;;5088424;28;20317;-66
2022/08/15 01:22:59;;;;;;;;;;;18.50;72.00;;;;;;5090495;28;19920;-66
2022/08/15 01:25:40;;;;;;;;;;;18.40;73.00;;;;;;5092487;28;19933;-66
2022/08/15 01:28:11;;;;;;;;;;;18.40;73.10;;;;;;5087955;28;20365;-66
2022/08/15 01:30:42;;;;;;;;;;;18.40;73.80;;;;;;5087458;28;19931;-65
2022/08/15 01:33:08;;;;;;;;;;;18.40;74.10;;;;;;5086454;28;19916;-66
2022/08/15 01:35:34;;;;;;;;;;;18.30;73.90;;;;;;5061426;28;19923;-65
2022/08/15 01:38:01;;;;;;;;;;;18.30;73.30;;;;;;5086879;28;19938;-65
2022/08/15 01:40:33;;;;;;;;;;;18.30;74.10;;;;;;5081078;28;19971;-65
2022/08/15 01:42:59;;;;;;;;;;;18.30;75.30;;;;;;5084296;28;19912;-66
2022/08/15 01:45:27;;;;;;;;;;;18.20;76.20;;;;;;5077952;28;20389;-65
2022/08/15 01:47:56;;;;;;;;;;;18.20;77.80;;;;;;5078372;28;19944;-65
2022/08/15 01:50:30;;;;;;;;;;;18.20;77.10;;;;;;5089155;28;20666;-66
2022/08/15 01:52:59;;;;;;;;;;;18.20;76.90;;;;;;5082832;28;19919;-66
2022/08/15 01:55:28;;;;;;;;;;;18.10;80.70;;;;;;5062236;28;19963;-67
2022/08/15 01:57:53;;;;;;;;;;;17.90;88.90;;;;;;5078990;28;19991;-65
2022/08/15 02:00:20;;;;;;;;;;;17.80;92.80;;;;;;5076127;28;20015;-65
2022/08/15 02:02:46;;;;;;;;;;;17.60;95.50;;;;;;5083437;28;19925;-66
2022/08/15 02:05:12;;;;;;;;;;;17.40;97.80;;;;;;5083719;28;20415;-65
2022/08/15 02:07:38;;;;;;;;;;;17.20;98.70;;;;;;5082501;28;19930;-65
2022/08/15 02:10:05;;;;;;;;;;;17.10;99.80;;;;;;5081612;28;20411;-65
2022/08/15 02:12:32;;;;;;;;;;;17.00;99.90;;;;;;5078785;28;20405;-65
2022/08/15 02:14:59;;;;;;;;;;;16.90;99.90;;;;;;5085481;28;19916;-64
2022/08/15 02:17:25;;;;;;;;;;;16.80;99.90;;;;;;5087797;28;19912;-65
2022/08/15 02:19:51;;;;;;;;;;;16.90;99.90;;;;;;5086485;28;20030;-64
2022/08/15 02:22:19;;;;;;;;;;;17.00;99.90;;;;;;5092360;28;19946;-64
2022/08/15 02:24:44;;;;;;;;;;;17.00;99.90;;;;;;5085785;28;19920;-66
2022/08/15 02:27:11;;;;;;;;;;;16.90;99.90;;;;;;5090642;28;19937;-65
2022/08/15 02:29:37;;;;;;;;;;;16.90;99.90;;;;;;5090429;28;19916;-67
2022/08/15 02:32:06;;;;;;;;;;;16.90;99.90;;;;;;5086167;28;20002;-65
2022/08/15 02:34:34;;;;;;;;;;;16.90;99.90;;;;;;5065261;28;19998;-65
2022/08/15 02:37:00;;;;;;;;;;;17.00;99.90;;;;;;5084522;28;20001;-65
2022/08/15 02:39:26;;;;;;;;;;;17.10;99.90;;;;;;5077332;28;19927;-66
2022/08/15 02:41:52;;;;;;;;;;;17.10;99.90;;;;;;5085190;28;19920;-65
2022/08/15 02:44:20;;;;;;;;;;;17.10;99.90;;;;;;5091264;28;19931;-65
2022/08/15 02:46:45;;;;;;;;;;;17.20;99.90;;;;;;5088474;28;19921;-65
2022/08/15 02:49:11;;;;;;;;;;;17.30;99.70;;;;;;5092295;28;20722;-65
2022/08/15 02:51:38;;;;;;;;;;;17.40;98.00;;;;;;5099825;28;19921;-65
2022/08/15 02:54:05;;;;;;;;;;;17.60;96.70;;;;;;5093889;28;20003;-65
2022/08/15 02:56:31;;;;;;;;;;;17.60;95.90;;;;;;5093836;28;19995;-67
2022/08/15 02:58:57;;;;;;;;;;;17.70;96.30;;;;;;5082212;28;19920;-66
2022/08/15 03:01:23;;;;;;;;;;;17.70;96.00;;;;;;5095152;28;19953;-66
2022/08/15 03:03:51;;;;;;;;;;;17.60;95.90;;;;;;5092057;28;19918;-66
2022/08/15 03:06:18;;;;;;;;;;;17.60;96.10;;;;;;5077783;28;19954;-65
2022/08/15 03:08:44;;;;;;;;;;;17.70;95.90;;;;;;5091059;28;19920;-65
2022/08/15 03:11:10;;;;;;;;;;;17.80;95.50;;;;;;5089474;28;19920;-65
2022/08/15 03:13:36;;;;;;;;;;;17.80;94.80;;;;;;5074450;28;19912;-66
2022/08/15 03:16:04;;;;;;;;;;;17.80;95.30;;;;;;5095063;28;19950;-65
2022/08/15 03:18:31;;;;;;;;;;;17.80;96.10;;;;;;5092487;28;20054;-67
2022/08/15 03:20:57;;;;;;;;;;;17.70;96.00;;;;;;5096120;28;19926;-65
2022/08/15 03:23:25;;;;;;;;;;;17.70;96.60;;;;;;5094089;28;20373;-66
2022/08/15 03:25:51;;;;;;;;;;;17.70;96.20;;;;;;5084803;28;19912;-65
2022/08/15 03:28:18;;;;;;;;;;;17.70;96.40;;;;;;5080647;28;20393;-65
2022/08/15 03:30:44;;;;;;;;;;;17.60;96.10;;;;;;5085044;28;19912;-65
2022/08/15 03:33:09;;;;;;;;;;;17.50;95.20;;;;;;5080679;28;19982;-65
2022/08/15 03:35:40;;;;;;;;;;;17.40;93.50;;;;;;5090810;28;19921;-66
2022/08/15 03:38:06;;;;;;;;;;;17.30;93.80;;;;;;5084576;28;19912;-65
2022/08/15 03:40:32;;;;;;;;;;;17.40;95.20;;;;;;5084459;28;19965;-65
2022/08/15 03:42:59;;;;;;;;;;;17.30;95.00;;;;;;5083799;28;20316;-64
2022/08/15 03:45:26;;;;;;;;;;;17.50;94.50;;;;;;5078807;28;19917;-66
2022/08/15 03:47:52;;;;;;;;;;;17.40;93.60;;;;;;5073699;28;20360;-65
2022/08/15 03:50:18;;;;;;;;;;;17.40;94.10;;;;;;5058051;28;20039;-65
2022/08/15 03:52:52;;;;;;;;;;;17.40;94.20;;;;;;5071132;28;19954;-66
2022/08/15 03:55:18;;;;;;;;;;;17.50;94.40;;;;;;5081172;28;19977;-65
2022/08/15 03:57:44;;;;;;;;;;;17.40;95.10;;;;;;5074280;28;19920;-69
2022/08/15 04:00:11;;;;;;;;;;;17.30;96.60;;;;;;5088824;28;20006;-67
2022/08/15 04:02:37;;;;;;;;;;;17.30;97.50;;;;;;5086773;28;20605;-65
2022/08/15 04:05:02;;;;;;;;;;;17.20;98.60;;;;;;5076292;28;20381;-65
2022/08/15 04:07:28;;;;;;;;;;;17.20;99.40;;;;;;5075942;28;19916;-65
2022/08/15 04:09:54;;;;;;;;;;;17.30;99.90;;;;;;5079095;28;19912;-66
2022/08/15 04:12:30;;;;;;;;;;;17.10;99.90;;;;;;5078754;28;19919;-66
2022/08/15 04:14:55;;;;;;;;;;;17.10;99.90;;;;;;5080351;28;20377;-66
2022/08/15 04:17:21;;;;;;;;;;;17.10;99.90;;;;;;5079069;28;19913;-66
2022/08/15 04:19:47;;;;;;;;;;;17.10;99.90;;;;;;5081426;28;19989;-66
2022/08/15 04:22:13;;;;;;;;;;;17.00;99.90;;;;;;5086835;28;19966;-65
2022/08/15 04:24:39;;;;;;;;;;;17.00;99.90;;;;;;5087836;28;19912;-66
2022/08/15 04:27:04;;;;;;;;;;;17.00;99.90;;;;;;5086705;28;22129;-65
2022/08/15 04:29:30;;;;;;;;;;;16.90;99.90;;;;;;5090130;28;19920;-66
2022/08/15 04:31:56;;;;;;;;;;;16.80;99.90;;;;;;5082982;28;20274;-66
2022/08/15 04:34:22;;;;;;;;;;;16.70;99.90;;;;;;5086052;28;20296;-65
2022/08/15 04:36:47;;;;;;;;;;;16.70;99.90;;;;;;5066852;28;19971;-67
2022/08/15 04:39:13;;;;;;;;;;;16.70;99.90;;;;;;5079634;28;20258;-65
2022/08/15 04:41:38;;;;;;;;;;;16.60;99.90;;;;;;5088292;28;19919;-66
2022/08/15 04:44:04;;;;;;;;;;;16.60;99.90;;;;;;5086403;28;19916;-65
2022/08/15 04:46:30;;;;;;;;;;;16.60;99.90;;;;;;5067574;28;19912;-65
2022/08/15 04:48:56;;;;;;;;;;;16.50;99.90;;;;;;5086153;28;19926;-66
2022/08/15 04:51:21;;;;;;;;;;;16.40;99.90;;;;;;5094010;28;20378;-65
2022/08/15 04:53:50;;;;;;;;;;;16.40;99.90;;;;;;5085292;28;19912;-64
2022/08/15 04:56:16;;;;;;;;;;;16.30;99.90;;;;;;5070982;28;19919;-64
2022/08/15 04:58:41;;;;;;;;;;;16.30;99.90;;;;;;5085683;28;19920;-65
2022/08/15 05:01:09;;;;;;;;;;;16.30;99.90;;;;;;5084947;28;19959;-65
2022/08/15 05:03:34;;;;;;;;;;;16.30;99.90;;;;;;5089496;28;20418;-66
2022/08/15 05:06:01;;;;;;;;;;;16.30;99.90;;;;;;5089305;28;19912;-66
2022/08/15 05:08:28;;;;;;;;;;;16.40;99.90;;;;;;5084812;28;19931;-67
2022/08/15 05:10:57;;;;;;;;;;;16.40;99.90;;;;;;5073685;28;19967;-65
2022/08/15 05:13:27;;;;;;;;;;;16.40;99.90;;;;;;5085908;28;20011;-65
2022/08/15 05:15:53;;;;;;;;;;;16.40;99.90;;;;;;5093953;28;19966;-66
2022/08/15 05:18:19;;;;;;;;;;;16.50;99.90;;;;;;5088263;28;19912;-66
2022/08/15 05:20:45;;;;;;;;;;;16.50;99.90;;;;;;5085429;28;20273;-65
2022/08/15 05:23:12;;;;;;;;;;;16.50;99.90;;;;;;5083778;28;19927;-66
2022/08/15 05:25:39;;;;;;;;;;;16.60;99.90;;;;;;5086256;28;19912;-65
2022/08/15 05:28:05;;;;;;;;;;;16.60;99.90;;;;;;5083318;28;20006;-66
2022/08/15 05:30:31;;;;;;;;;;;16.70;99.90;;;;;;5082034;28;20015;-66
2022/08/15 05:33:01;;;;;;;;;;;16.70;99.90;;;;;;5079686;28;19947;-65
2022/08/15 05:35:27;;;;;;;;;;;16.80;99.90;;;;;;5088506;28;19912;-65
2022/08/15 05:37:53;;;;;;;;;;;16.90;99.90;;;;;;5080499;28;19922;-64
2022/08/15 05:40:18;;;;;;;;;;;17.00;99.90;;;;;;5081113;28;20270;-66
2022/08/15 05:42:54;;;;;;;;;;;17.00;99.90;;;;;;5083678;28;19956;-67
2022/08/15 05:45:19;;;;;;;;;;;17.10;99.90;;;;;;5078563;28;20358;-66
2022/08/15 05:47:47;;;;;;;;;;;17.10;99.90;;;;;;5068570;28;19912;-65
2022/08/15 05:50:13;;;;;;;;;;;17.10;99.90;;;;;;5078875;28;19959;-65
2022/08/15 05:52:50;;;;;;;;;;;17.20;99.90;;;;;;5084766;28;19916;-66
2022/08/15 05:55:33;;;;;;;;;;;17.40;99.90;;;;;;5078872;28;20544;-66
2022/08/15 05:58:17;;;;;;;;;;;17.40;99.90;;;;;;5078769;28;19913;-65
2022/08/15 06:00:53;;;;;;;;;;;17.30;99.90;;;;;;5085494;28;19973;-65
2022/08/15 06:03:23;;;;;;;;;;;17.40;99.90;;;;;;5082460;28;19939;-65
2022/08/15 06:05:53;;;;;;;;;;;17.60;98.80;;;;;;5086845;28;19921;-65
2022/08/15 06:08:21;;;;;;;;;;;17.80;97.60;;;;;;5082665;28;19982;-66
2022/08/15 06:10:54;;;;;;;;;;;18.10;94.50;;;;;;5085791;28;19934;-65
2022/08/15 06:13:22;;;;;;;;;;;18.20;94.20;;;;;;5078636;28;19912;-66
2022/08/15 06:15:59;;;;;;;;;;;18.40;94.00;;;;;;5080496;28;19912;-65
2022/08/15 06:18:26;;;;;;;;;;;18.50;93.30;;;;;;5095339;28;19917;-65
2022/08/15 06:20:52;;;;;;;;;;;18.60;93.20;;;;;;5095694;28;20346;-65
2022/08/15 06:23:30;;;;;;;;;;;18.80;92.50;;;;;;5089683;28;19935;-65
2022/08/15 06:25:59;;;;;;;;;;;19.00;92.10;;;;;;5096233;28;20012;-66
2022/08/15 06:28:28;;;;;;;;;;;19.10;92.10;;;;;;5093601;28;19920;-66
2022/08/15 06:31:28;;;;;;;;;;;19.30;91.30;;;;;;5070697;28;20518;-65
2022/08/15 06:34:00;;;;;;;;;;;19.50;91.00;;;;;;5042436;28;20367;-65
2022/08/15 06:36:59;;;;;;;;;;;19.80;90.70;;;;;;5087925;28;19919;-64
2022/08/15 06:39:34;;;;;;;;;;;20.00;90.40;;;;;;5040811;28;20009;-65
2022/08/15 06:42:10;;;;;;;;;;;20.20;90.30;;;;;;5088282;28;20370;-65
2022/08/15 06:44:36;;;;;;;;;;;20.30;88.90;;;;;;5090322;28;19957;-65
2022/08/15 06:47:04;;;;;;;;;;;20.50;89.70;;;;;;5069805;28;20243;-66
2022/08/15 06:49:34;;;;;;;;;;;20.70;87.50;;;;;;5083632;28;20353;-65
2022/08/15 06:52:00;;;;;;;;;;;21.10;85.30;;;;;;5090399;28;20149;-66
2022/08/15 06:54:28;;;;;;;;;;;21.50;83.40;;;;;;5089262;28;19920;-65
2022/08/15 06:56:58;;;;;;;;;;;21.80;80.30;;;;;;5092980;28;20301;-66
2022/08/15 06:59:36;;;;;;;;;;;22.20;77.80;;;;;;5091534;28;19991;-66
2022/08/15 07:02:20;;;;;;;;;;;22.60;75.50;;;;;;5089102;28;19920;-66
2022/08/15 07:05:05;;;;;;;;;;;22.80;74.20;;;;;;5090528;28;20932;-68
2022/08/15 07:07:31;;;;;;;;;;;22.80;73.90;;;;;;5091803;28;19912;-66
2022/08/15 07:10:05;;;;;;;;;;;23.00;74.00;;;;;;5098435;28;19922;-66
2022/08/15 07:12:37;;;;;;;;;;;23.10;74.90;;;;;;5091534;28;19916;-67
2022/08/15 07:15:07;;;;;;;;;;;23.30;73.60;;;;;;5089982;28;19912;-66
2022/08/15 07:17:37;;;;;;;;;;;23.50;73.90;;;;;;5091930;28;19960;-65
2022/08/15 07:20:04;;;;;;;;;;;23.70;73.50;;;;;;5098292;28;19995;-66
2022/08/15 07:22:31;;;;;;;;;;;24.00;72.50;;;;;;5089119;28;19920;-65
2022/08/15 07:24:57;;;;;;;;;;;24.00;72.40;;;;;;5085537;28;19970;-66
2022/08/15 07:27:33;;;;;;;;;;;24.00;71.80;;;;;;5082912;28;19951;-65
2022/08/15 07:30:00;;;;;;;;;;;23.90;72.50;;;;;;5082788;28;19923;-65
2022/08/15 07:32:44;;;;;;;;;;;23.80;73.80;;;;;;5075108;28;20003;-65
2022/08/15 07:35:12;;;;;;;;;;;23.60;74.70;;;;;;5080391;28;19912;-65
2022/08/15 07:37:40;;;;;;;;;;;23.70;74.80;;;;;;5096199;28;19911;-66
2022/08/15 07:40:06;;;;;;;;;;;23.90;73.80;;;;;;5087186;28;20456;-66
2022/08/15 07:42:41;;;;;;;;;;;23.80;74.20;;;;;;5089726;28;20002;-66
2022/08/15 07:45:13;;;;;;;;;;;23.90;73.90;;;;;;5083305;28;19920;-66
2022/08/15 07:47:39;;;;;;;;;;;23.90;73.60;;;;;;5095891;28;19927;-66
2022/08/15 07:50:10;;;;;;;;;;;23.90;73.60;;;;;;5087321;28;20280;-66
2022/08/15 07:52:37;;;;;;;;;;;24.00;73.10;;;;;;5086111;28;20280;-66
2022/08/15 07:55:21;;;;;;;;;;;24.10;71.70;;;;;;5087765;28;19916;-67
2022/08/15 07:58:04;;;;;;;;;;;24.20;70.30;;;;;;5094908;28;19912;-66
2022/08/15 08:00:31;;;;;;;;;;;24.40;69.80;;;;;;5082197;28;20305;-67
2022/08/15 08:02:58;;;;;;;;;;;24.50;68.70;;;;;;5090875;28;19911;-67
2022/08/15 08:05:25;;;;;;;;;;;24.40;68.40;;;;;;5082424;28;19916;-67
2022/08/15 08:07:52;;;;;;;;;;;24.40;68.00;;;;;;5083525;28;19918;-66
2022/08/15 08:10:21;;;;;;;;;;;24.30;69.20;;;;;;5084998;28;19916;-67
2022/08/15 08:13:06;;;;;;;;;;;24.10;70.70;;;;;;5080289;28;19955;-67
2022/08/15 08:15:50;;;;;;;;;;;24.20;70.70;;;;;;5089842;28;19920;-67
2022/08/15 08:18:24;;;;;;;;;;;24.30;70.80;;;;;;5087241;28;20732;-65
2022/08/15 08:21:11;;;;;;;;;;;24.10;71.20;;;;;;5083648;28;19924;-66
2022/08/15 08:23:47;;;;;;;;;;;24.20;70.70;;;;;;5081848;28;19932;-67
2022/08/15 08:26:38;;;;;;;;;;;24.00;72.70;;;;;;5081690;28;20369;-65
2022/08/15 08:29:06;;;;;;;;;;;24.00;72.70;;;;;;5085219;28;19969;-66
2022/08/15 08:31:36;;;;;;;;;;;24.10;73.10;;;;;;5087222;28;20040;-65
2022/08/15 08:34:05;;;;;;;;;;;24.20;73.00;;;;;;5081879;28;20261;-66
2022/08/15 08:36:31;;;;;;;;;;;24.10;73.30;;;;;;5098459;28;20349;-68
2022/08/15 08:39:12;;;;;;;;;;;24.10;73.70;;;;;;5096844;28;19922;-67
2022/08/15 08:41:52;;;;;;;;;;;24.10;73.90;;;;;;5090679;28;19926;-65
2022/08/15 08:44:23;;;;;;;;;;;24.10;73.60;;;;;;5088709;28;20257;-67
2022/08/15 08:46:48;;;;;;;;;;;23.90;75.30;;;;;;5094077;28;19916;-66
2022/08/15 08:49:23;;;;;;;;;;;23.70;76.70;;;;;;5093965;28;19916;-66
2022/08/15 08:52:02;;;;;;;;;;;23.90;76.40;;;;;;5089864;28;19916;-67
2022/08/15 08:54:43;;;;;;;;;;;23.80;75.90;;;;;;5092611;28;19923;-66
2022/08/15 08:57:10;;;;;;;;;;;23.80;76.00;;;;;;5063370;28;19916;-66
2022/08/15 08:59:41;;;;;;;;;;;23.60;77.50;;;;;;5053095;28;19936;-67
2022/08/15 09:02:27;;;;;;;;;;;23.50;79.40;;;;;;5085725;28;20400;-66
2022/08/15 09:04:59;;;;;;;;;;;23.60;80.10;;;;;;5086429;28;22444;-67
2022/08/15 09:07:28;;;;;;;;;;;23.40;83.40;;;;;;5076312;28;19965;-67
2022/08/15 09:09:56;;;;;;;;;;;23.10;86.20;;;;;;5082180;28;19970;-65
2022/08/15 09:15:14;;;;;;;;;;;23.20;88.20;;;;;;5096799;28;19923;-67
2022/08/15 09:17:42;;;;;;;;;;;23.20;87.80;;;;;;5092310;28;19912;-65
2022/08/15 09:20:07;;;;;;;;;;;23.40;86.80;;;;;;5095659;28;19959;-67
2022/08/15 09:22:33;;;;;;;;;;;23.30;87.70;;;;;;5093614;28;19947;-66
2022/08/15 09:24:59;;;;;;;;;;;23.30;87.50;;;;;;5091551;28;19945;-67
2022/08/15 09:27:37;;;;;;;;;;;23.20;88.00;;;;;;5089435;28;19990;-67
2022/08/15 09:30:07;;;;;;;;;;;23.20;88.60;;;;;;5078476;28;19926;-67
2022/08/15 09:32:36;;;;;;;;;;;23.10;89.00;;;;;;5085711;28;19926;-67
2022/08/15 09:35:13;;;;;;;;;;;23.10;89.80;;;;;;5084881;28;21173;-67
2022/08/15 09:37:56;;;;;;;;;;;23.00;90.10;;;;;;5082634;28;19919;-65
2022/08/15 09:40:34;;;;;;;;;;;23.10;90.10;;;;;;5093100;28;19972;-68
2022/08/15 09:43:08;;;;;;;;;;;23.10;90.40;;;;;;5090250;28;19920;-66
2022/08/15 09:45:55;;;;;;;;;;;23.10;90.10;;;;;;5089299;28;19916;-67
2022/08/15 09:48:40;;;;;;;;;;;23.20;90.10;;;;;;5087961;28;19916;-67
2022/08/15 09:51:12;;;;;;;;;;;23.20;89.30;;;;;;5090814;28;19948;-67
2022/08/15 09:53:46;;;;;;;;;;;23.00;90.50;;;;;;5099969;28;19918;-68
2022/08/15 09:56:17;;;;;;;;;;;22.80;91.40;;;;;;5097447;28;19924;-67
2022/08/15 09:58:54;;;;;;;;;;;22.70;92.10;;;;;;5081684;28;19932;-68
2022/08/15 10:01:28;;;;;;;;;;;22.70;92.30;;;;;;5087142;28;19928;-68
2022/08/15 10:04:02;;;;;;;;;;;22.80;92.30;;;;;;5079529;28;19912;-67
2022/08/15 10:06:33;;;;;;;;;;;22.80;92.80;;;;;;5094008;28;19916;-67
2022/08/15 10:08:59;;;;;;;;;;;22.90;92.70;;;;;;5095466;28;19994;-66
2022/08/15 10:11:25;;;;;;;;;;;22.90;92.90;;;;;;5097464;28;19983;-67
2022/08/15 10:14:06;;;;;;;;;;;23.00;91.90;;;;;;5100551;28;19942;-68
2022/08/15 10:16:39;;;;;;;;;;;23.10;92.50;;;;;;5083160;28;19920;-65
2022/08/15 10:19:11;;;;;;;;;;;23.10;92.40;;;;;;5093976;28;19923;-65
2022/08/15 10:21:42;;;;;;;;;;;23.10;92.60;;;;;;5100614;28;19923;-66
2022/08/15 10:24:28;;;;;;;;;;;23.30;92.50;;;;;;5075934;28;19931;-67
2022/08/15 10:27:07;;;;;;;;;;;23.40;92.20;;;;;;5045313;28;19979;-67
2022/08/15 10:29:33;;;;;;;;;;;23.60;90.50;;;;;;5088802;28;19912;-67
2022/08/15 10:32:00;;;;;;;;;;;23.90;90.00;;;;;;5085411;28;20372;-66
2022/08/15 10:34:37;;;;;;;;;;;24.30;85.80;;;;;;5087158;28;19931;-68
2022/08/15 10:37:15;;;;;;;;;;;24.40;79.00;;;;;;5080106;28;19919;-68
2022/08/15 10:39:53;;;;;;;;;;;24.60;76.50;;;;;;5091782;28;20002;-69
2022/08/15 10:42:41;;;;;;;;;;;24.70;74.50;;;;;;5083522;28;19916;-67
2022/08/15 10:45:08;;;;;;;;;;;24.90;72.80;;;;;;5062628;28;19920;-68
2022/08/15 10:47:45;;;;;;;;;;;24.80;71.40;;;;;;5090919;28;19920;-67
2022/08/15 10:50:19;;;;;;;;;;;24.90;70.20;;;;;;5097575;28;19930;-68
2022/08/15 10:53:00;;;;;;;;;;;24.70;70.10;;;;;;5092737;28;19916;-68
2022/08/15 10:55:25;;;;;;;;;;;24.70;70.80;;;;;;5091914;28;19912;-68
2022/08/15 10:57:53;;;;;;;;;;;24.60;72.00;;;;;;5096133;28;19916;-67
2022/08/15 11:00:38;;;;;;;;;;;24.70;72.40;;;;;;5103206;28;19924;-70
2022/08/15 11:03:07;;;;;;;;;;;24.90;71.70;;;;;;5101228;28;19924;-68
2022/08/15 11:05:33;;;;;;;;;;;24.60;75.30;;;;;;5094464;28;19926;-70
2022/08/15 11:07:58;;;;;;;;;;;24.30;78.60;;;;;;5101676;28;19943;-68
2022/08/15 11:10:27;;;;;;;;;;;24.40;77.20;;;;;;5104860;28;19913;-68
2022/08/15 11:12:54;;;;;;;;;;;24.20;79.80;;;;;;5103926;28;20027;-70
2022/08/15 11:15:20;;;;;;;;;;;24.10;81.80;;;;;;5102362;28;19919;-69
2022/08/15 11:17:49;;;;;;;;;;;23.90;85.30;;;;;;5092017;28;19921;-67
2022/08/15 11:20:19;;;;;;;;;;;23.70;88.60;;;;;;5096231;28;19951;-69
2022/08/15 11:22:57;;;;;;;;;;;23.70;90.10;;;;;;5094228;28;20364;-67
2022/08/15 11:25:24;;;;;;;;;;;23.70;90.40;;;;;;5090858;28;20521;-69
2022/08/15 11:28:04;;;;;;;;;;;23.50;91.50;;;;;;5090125;28;19920;-67
2022/08/15 11:30:31;;;;;;;;;;;23.50;92.60;;;;;;5091564;28;19915;-70
2022/08/15 11:33:16;;;;;;;;;;;23.50;93.00;;;;;;5094074;28;19928;-68
2022/08/15 11:35:41;;;;;;;;;;;23.50;93.20;;;;;;5088663;28;19969;-67
2022/08/15 11:38:07;;;;;;;;;;;23.60;93.30;;;;;;5075919;28;19916;-69
2022/08/15 11:40:36;;;;;;;;;;;23.60;93.10;;;;;;5092985;28;19971;-68
2022/08/15 11:43:03;;;;;;;;;;;23.80;91.70;;;;;;5087839;28;20523;-67
2022/08/15 11:45:34;;;;;;;;;;;24.00;90.90;;;;;;5086469;28;19966;-68
2022/08/15 11:48:00;;;;;;;;;;;24.10;91.20;;;;;;5094961;28;19912;-68
2022/08/15 11:50:29;;;;;;;;;;;24.30;90.30;;;;;;5071798;28;19920;-68
2022/08/15 11:52:56;;;;;;;;;;;24.60;87.20;;;;;;5083108;28;19916;-69
2022/08/15 11:55:25;;;;;;;;;;;24.70;81.70;;;;;;5089769;28;19927;-69
2022/08/15 11:57:55;;;;;;;;;;;24.70;81.00;;;;;;5083721;28;19912;-72
2022/08/15 12:00:39;;;;;;;;;;;24.80;80.70;;;;;;5087056;28;19920;-69
2022/08/15 12:03:23;;;;;;;;;;;24.80;82.50;;;;;;5070322;28;20007;-73
2022/08/15 12:05:50;;;;;;;;;;;24.80;78.60;;;;;;5097397;28;20364;-69
2022/08/15 12:08:42;;;;;;;;;;;24.50;74.10;;;;;;5085972;28;19934;-67
2022/08/15 12:11:07;;;;;;;;;;;24.40;75.20;;;;;;5101903;28;19971;-68
2022/08/15 12:13:33;;;;;;;;;;;24.60;78.10;;;;;;5108046;28;19987;-69
2022/08/15 12:15:59;;;;;;;;;;;24.80;69.50;;;;;;5100810;28;19916;-68
2022/08/15 12:18:28;;;;;;;;;;;25.00;70.10;;;;;;5101261;28;19973;-67
2022/08/15 12:20:59;;;;;;;;;;;24.90;65.40;;;;;;5112478;28;19912;-69
2022/08/15 12:23:36;;;;;;;;;;;25.00;63.30;;;;;;5099995;28;19928;-68
2022/08/15 12:26:06;;;;;;;;;;;25.00;65.40;;;;;;5099761;28;19951;-68
2022/08/15 12:28:33;;;;;;;;;;;25.00;66.20;;;;;;5097886;28;19947;-69
2022/08/15 12:31:02;;;;;;;;;;;25.10;66.50;;;;;;5101653;28;19986;-70
2022/08/15 12:33:27;;;;;;;;;;;25.30;63.80;;;;;;5099086;28;19912;-68
2022/08/15 12:35:53;;;;;;;;;;;25.30;63.20;;;;;;5086640;28;20021;-67
2022/08/15 12:38:19;;;;;;;;;;;25.40;59.60;;;;;;5108104;28;19920;-68
2022/08/15 12:40:45;;;;;;;;;;;25.60;59.10;;;;;;5106463;28;19932;-68
2022/08/15 12:43:11;;;;;;;;;;;25.80;57.80;;;;;;5103184;28;19920;-69
2022/08/15 12:45:37;;;;;;;;;;;26.10;56.70;;;;;;5098544;28;19994;-69
2022/08/15 12:48:05;;;;;;;;;;;26.30;55.80;;;;;;5102793;28;19934;-69
2022/08/15 12:50:31;;;;;;;;;;;26.40;54.80;;;;;;5089898;28;19976;-68
2022/08/15 12:52:58;;;;;;;;;;;26.40;54.80;;;;;;5107235;28;19906;-69
2022/08/15 12:55:24;;;;;;;;;;;26.20;55.20;;;;;;5107666;28;19912;-69
2022/08/15 12:57:50;;;;;;;;;;;26.20;55.10;;;;;;5097567;28;19928;-67
2022/08/15 13:00:16;;;;;;;;;;;26.50;54.80;;;;;;5096318;28;19967;-66
2022/08/15 13:02:42;;;;;;;;;;;26.90;52.00;;;;;;5099500;28;20128;-67
2022/08/15 13:05:13;;;;;;;;;;;27.10;51.90;;;;;;5094878;28;19960;-67
2022/08/15 13:07:39;;;;;;;;;;;27.20;52.30;;;;;;5089168;28;20859;-68
2022/08/15 13:10:05;;;;;;;;;;;27.50;50.40;;;;;;5095845;28;20007;-67
2022/08/15 13:12:30;;;;;;;;;;;27.60;46.60;;;;;;5103273;28;19912;-67
2022/08/15 13:14:56;;;;;;;;;;;27.80;47.30;;;;;;5097599;28;19925;-68
2022/08/15 13:17:22;;;;;;;;;;;27.60;45.30;;;;;;5100174;28;19947;-67
2022/08/15 13:25:18;;;;;;;;;;;27.60;45.20;;;;;;5106880;28;19910;-69
2022/08/15 13:27:48;;;;;;;;;;;27.60;45.30;;;;;;5102861;28;19959;-68
2022/08/15 13:30:14;;;;;;;;;;;27.70;44.60;;;;;;5108564;28;19919;-68
2022/08/15 13:32:40;;;;;;;;;;;27.90;43.80;;;;;;5103870;28;19935;-69
2022/08/15 13:35:07;;;;;;;;;;;27.60;43.20;;;;;;5099810;28;19904;-67
2022/08/15 13:37:33;;;;;;;;;;;27.70;42.90;;;;;;5099331;28;19935;-68
2022/08/15 13:39:58;;;;;;;;;;;28.00;43.20;;;;;;5099191;28;19993;-67
2022/08/15 13:42:24;;;;;;;;;;;28.20;42.20;;;;;;5096342;28;19920;-67
2022/08/15 13:44:53;;;;;;;;;;;28.10;42.30;;;;;;5097774;28;19956;-67
2022/08/15 13:47:21;;;;;;;;;;;27.80;41.80;;;;;;5103352;28;19932;-68
2022/08/15 13:49:50;;;;;;;;;;;27.80;42.50;;;;;;5105630;28;19988;-68
2022/08/15 13:52:16;;;;;;;;;;;27.80;41.80;;;;;;5109480;28;19904;-67
2022/08/15 13:54:42;;;;;;;;;;;27.90;41.20;;;;;;5109032;28;19912;-68
2022/08/15 13:57:08;;;;;;;;;;;27.60;40.80;;;;;;5093746;28;19922;-65
2022/08/15 13:59:34;;;;;;;;;;;27.50;41.00;;;;;;5105297;28;19907;-68
2022/08/15 14:02:01;;;;;;;;;;;27.40;40.70;;;;;;5103110;28;20354;-67
2022/08/15 14:04:35;;;;;;;;;;;27.60;40.40;;;;;;5113169;28;19904;-68
2022/08/15 14:07:00;;;;;;;;;;;27.90;39.50;;;;;;5103833;28;20553;-69
2022/08/15 14:09:27;;;;;;;;;;;28.10;39.60;;;;;;5124103;28;19919;-67
2022/08/15 14:11:52;;;;;;;;;;;28.20;40.00;;;;;;5120222;28;19904;-68
2022/08/15 14:14:22;;;;;;;;;;;28.30;38.60;;;;;;5116216;28;19915;-69
2022/08/15 14:16:48;;;;;;;;;;;28.60;40.80;;;;;;5122881;28;19904;-68
2022/08/15 14:19:16;;;;;;;;;;;28.50;37.50;;;;;;5109077;28;19923;-71
2022/08/15 14:21:42;;;;;;;;;;;28.00;38.40;;;;;;5109634;28;19923;-68
2022/08/15 14:24:07;;;;;;;;;;;27.60;38.90;;;;;;5119661;28;19904;-67
2022/08/15 14:26:35;;;;;;;;;;;27.60;39.10;;;;;;5118231;28;19915;-67
2022/08/15 14:29:01;;;;;;;;;;;27.80;39.30;;;;;;5118792;28;19904;-68
2022/08/15 14:31:27;;;;;;;;;;;28.00;39.10;;;;;;5104843;28;19962;-68
2022/08/15 14:33:54;;;;;;;;;;;28.00;39.00;;;;;;5119669;28;20031;-68
2022/08/15 14:36:20;;;;;;;;;;;28.20;38.20;;;;;;5114722;27;19972;-68
2022/08/15 14:38:46;;;;;;;;;;;28.50;38.10;;;;;;5123956;28;19904;-68
2022/08/15 14:41:12;;;;;;;;;;;29.00;37.50;;;;;;5104353;28;19928;-67
2022/08/15 14:43:38;;;;;;;;;;;29.40;39.60;;;;;;5107639;28;19975;-67